sensor_id;sensor_type;location;lat;lon;timestamp;pressure;altitude;pressure_sealevel;temperature;humidity
59170;BME280;52474;52.236;5.114;2023-04-19T00:01:51;102856.28;;;7.40;100.00
59170;BME280;52474;52.236;5.114;2023-04-19T00:04:17;102841.25;;;7.20;100.00
59170;BME280;52474;52.236;5.114;2023-04-19T00:06:44;102866.84;;;7.38;100.00
59170;BME280;52474;52.236;5.114;2023-04-19T00:09:11;102854.06;;;7.29;100.00
59170;BME280;52474;52.236;5.114;2023-04-19T00:11:37;102858.06;;;7.39;100.00
59170;BME280;52474;52.236;5.114;2023-04-19T00:14:03;102842.53;;;7.31;100.00
59170;BME280;52474;52.236;5.114;2023-04-19T00:16:29;102860.34;;;7.48;100.00
59170;BME280;52474;52.236;5.114;2023-04-19T00:18:54;102835.31;;;7.37;100.00
59170;BME280;52474;52.236;5.114;2023-04-19T00:21:20;102841.31;;;7.40;100.00
59170;BME280;52474;52.236;5.114;2023-04-19T00:23:46;102864.84;;;7.45;100.00
59170;BME280;52474;52.236;5.114;2023-04-19T00:26:12;102860.69;;;7.39;100.00
59170;BME280;52474;52.236;5.114;2023-04-19T00:28:41;102863.56;;;7.33;100.00
59170;BME280;52474;52.236;5.114;2023-04-19T00:31:08;102865.63;;;7.25;100.00
59170;BME280;52474;52.236;5.114;2023-04-19T00:33:33;102864.91;;;7.21;100.00
59170;BME280;52474;52.236;5.114;2023-04-19T00:35:59;102790.16;;;6.78;100.00
59170;BME280;52474;52.236;5.114;2023-04-19T00:38:25;102862.81;;;7.29;100.00
59170;BME280;52474;52.236;5.114;2023-04-19T00:40:50;102854.13;;;7.27;100.00
59170;BME280;52474;52.236;5.114;2023-04-19T00:43:19;102849.78;;;7.26;100.00
59170;BME280;52474;52.236;5.114;2023-04-19T00:45:46;102831.19;;;7.07;100.00
59170;BME280;52474;52.236;5.114;2023-04-19T00:48:13;102815.84;;;6.95;100.00
59170;BME280;52474;52.236;5.114;2023-04-19T00:50:40;102840.63;;;7.13;100.00
59170;BME280;52474;52.236;5.114;2023-04-19T00:53:06;102844.19;;;7.12;100.00
59170;BME280;52474;52.236;5.114;2023-04-19T00:55:32;102786.28;;;6.65;100.00
59170;BME280;52474;52.236;5.114;2023-04-19T00:57:58;102848.78;;;7.07;100.00
59170;BME280;52474;52.236;5.114;2023-04-19T01:00:24;102833.34;;;6.96;100.00
59170;BME280;52474;52.236;5.114;2023-04-19T01:02:50;102840.88;;;7.07;100.00
59170;BME280;52474;52.236;5.114;2023-04-19T01:05:18;102841.59;;;7.10;100.00
59170;BME280;52474;52.236;5.114;2023-04-19T01:07:43;102836.91;;;7.19;100.00
59170;BME280;52474;52.236;5.114;2023-04-19T01:10:13;102838.59;;;7.20;100.00
59170;BME280;52474;52.236;5.114;2023-04-19T01:12:40;102813.53;;;7.09;100.00
59170;BME280;52474;52.236;5.114;2023-04-19T01:15:06;102842.84;;;7.24;100.00
59170;BME280;52474;52.236;5.114;2023-04-19T01:17:32;102841.41;;;7.15;100.00
59170;BME280;52474;52.236;5.114;2023-04-19T01:19:59;102838.75;;;7.17;100.00
59170;BME280;52474;52.236;5.114;2023-04-19T01:22:25;102821.38;;;7.11;100.00
59170;BME280;52474;52.236;5.114;2023-04-19T01:24:52;102832.50;;;7.19;100.00
59170;BME280;52474;52.236;5.114;2023-04-19T01:27:18;102816.31;;;7.06;100.00
59170;BME280;52474;52.236;5.114;2023-04-19T01:29:44;102842.22;;;7.17;100.00
59170;BME280;52474;52.236;5.114;2023-04-19T01:32:10;102842.22;;;7.17;100.00
59170;BME280;52474;52.236;5.114;2023-04-19T01:34:37;102838.66;;;7.18;100.00
59170;BME280;52474;52.236;5.114;2023-04-19T01:37:03;102830.19;;;7.10;100.00
59170;BME280;52474;52.236;5.114;2023-04-19T01:39:29;102801.53;;;7.02;100.00
59170;BME280;52474;52.236;5.114;2023-04-19T01:41:54;102833.50;;;7.15;100.00
59170;BME280;52474;52.236;5.114;2023-04-19T01:44:20;102828.38;;;7.12;100.00
59170;BME280;52474;52.236;5.114;2023-04-19T01:46:47;102810.28;;;7.03;100.00
59170;BME280;52474;52.236;5.114;2023-04-19T01:49:12;102836.19;;;7.14;100.00
59170;BME280;52474;52.236;5.114;2023-04-19T01:51:41;102827.69;;;7.07;100.00
59170;BME280;52474;52.236;5.114;2023-04-19T01:54:07;102837.97;;;7.13;100.00
59170;BME280;52474;52.236;5.114;2023-04-19T01:56:32;102839.63;;;7.16;100.00
59170;BME280;52474;52.236;5.114;2023-04-19T01:58:58;102829.22;;;7.13;100.00
59170;BME280;52474;52.236;5.114;2023-04-19T02:01:24;102837.00;;;7.16;100.00
59170;BME280;52474;52.236;5.114;2023-04-19T02:03:50;102812.06;;;7.02;100.00
59170;BME280;52474;52.236;5.114;2023-04-19T02:06:16;102817.38;;;7.01;100.00
59170;BME280;52474;52.236;5.114;2023-04-19T02:08:41;102830.16;;;7.12;100.00
59170;BME280;52474;52.236;5.114;2023-04-19T02:11:12;102840.44;;;7.18;100.00
59170;BME280;52474;52.236;5.114;2023-04-19T02:13:41;102844.38;;;7.29;100.00
59170;BME280;52474;52.236;5.114;2023-04-19T02:16:07;102811.53;;;7.16;100.00
59170;BME280;52474;52.236;5.114;2023-04-19T02:18:33;102838.00;;;7.35;100.00
59170;BME280;52474;52.236;5.114;2023-04-19T02:21:07;102838.78;;;7.37;100.00
59170;BME280;52474;52.236;5.114;2023-04-19T02:23:33;102841.31;;;7.40;100.00
59170;BME280;52474;52.236;5.114;2023-04-19T02:26:00;102842.88;;;7.46;100.00
59170;BME280;52474;52.236;5.114;2023-04-19T02:28:31;102840.81;;;7.52;100.00
59170;BME280;52474;52.236;5.114;2023-04-19T02:30:57;102839.72;;;7.58;100.00
59170;BME280;52474;52.236;5.114;2023-04-19T02:33:25;102829.84;;;7.63;100.00
59170;BME280;52474;52.236;5.114;2023-04-19T02:35:51;102835.78;;;7.68;100.00
59170;BME280;52474;52.236;5.114;2023-04-19T02:38:17;102840.88;;;7.73;100.00
59170;BME280;52474;52.236;5.114;2023-04-19T02:40:43;102844.19;;;7.78;100.00
59170;BME280;52474;52.236;5.114;2023-04-19T02:43:08;102838.63;;;7.84;100.00
59170;BME280;52474;52.236;5.114;2023-04-19T02:45:34;102838.50;;;7.87;100.00
59170;BME280;52474;52.236;5.114;2023-04-19T02:48:01;102837.41;;;7.93;100.00
59170;BME280;52474;52.236;5.114;2023-04-19T02:50:27;102840.88;;;7.93;100.00
59170;BME280;52474;52.236;5.114;2023-04-19T02:52:53;102844.19;;;7.99;100.00
59170;BME280;52474;52.236;5.114;2023-04-19T02:55:21;102847.69;;;7.99;100.00
59170;BME280;52474;52.236;5.114;2023-04-19T02:57:53;102844.00;;;8.03;100.00
59170;BME280;52474;52.236;5.114;2023-04-19T03:00:19;102840.22;;;8.09;100.00
59170;BME280;52474;52.236;5.114;2023-04-19T03:02:57;102835.09;;;8.06;100.00
59170;BME280;52474;52.236;5.114;2023-04-19T03:05:23;102847.09;;;8.13;100.00
59170;BME280;52474;52.236;5.114;2023-04-19T03:07:49;102808.19;;;7.98;100.00
59170;BME280;52474;52.236;5.114;2023-04-19T03:10:15;102844.31;;;8.16;100.00
59170;BME280;52474;52.236;5.114;2023-04-19T03:12:41;102812.34;;;8.03;100.00
59170;BME280;52474;52.236;5.114;2023-04-19T03:15:09;102829.22;;;8.20;100.00
59170;BME280;52474;52.236;5.114;2023-04-19T03:17:34;102834.41;;;8.21;100.00
59170;BME280;52474;52.236;5.114;2023-04-19T03:20:02;102812.34;;;8.03;100.00
59170;BME280;52474;52.236;5.114;2023-04-19T03:22:34;102839.69;;;8.21;100.00
59170;BME280;52474;52.236;5.114;2023-04-19T03:25:01;102833.56;;;8.21;100.00
59170;BME280;52474;52.236;5.114;2023-04-19T03:27:26;102834.41;;;8.21;100.00
59170;BME280;52474;52.236;5.114;2023-04-19T03:29:57;102840.44;;;8.25;100.00
59170;BME280;52474;52.236;5.114;2023-04-19T03:32:24;102834.41;;;8.21;100.00
59170;BME280;52474;52.236;5.114;2023-04-19T03:34:50;102829.13;;;8.21;100.00
59170;BME280;52474;52.236;5.114;2023-04-19T03:37:16;102832.78;;;8.18;100.00
59170;BME280;52474;52.236;5.114;2023-04-19T03:39:42;102830.00;;;8.22;100.00
59170;BME280;52474;52.236;5.114;2023-04-19T03:42:13;102835.16;;;8.25;100.00
59170;BME280;52474;52.236;5.114;2023-04-19T03:44:44;102816.34;;;8.12;100.00
59170;BME280;52474;52.236;5.114;2023-04-19T03:47:10;102819.06;;;8.10;100.00
59170;BME280;52474;52.236;5.114;2023-04-19T03:49:41;102829.94;;;8.23;100.00
59170;BME280;52474;52.236;5.114;2023-04-19T03:52:07;102828.16;;;8.24;100.00
59170;BME280;52474;52.236;5.114;2023-04-19T03:54:33;102814.63;;;8.11;100.00
59170;BME280;52474;52.236;5.114;2023-04-19T03:57:00;102835.28;;;8.22;100.00
59170;BME280;52474;52.236;5.114;2023-04-19T03:59:26;102830.31;;;8.14;100.00
59170;BME280;52474;52.236;5.114;2023-04-19T04:01:52;102835.75;;;8.11;100.00
59170;BME280;52474;52.236;5.114;2023-04-19T04:04:18;102829.22;;;7.99;100.00
59170;BME280;52474;52.236;5.114;2023-04-19T04:06:44;102825.00;;;7.95;100.00
59170;BME280;52474;52.236;5.114;2023-04-19T04:09:11;102840.63;;;8.00;100.00
59170;BME280;52474;52.236;5.114;2023-04-19T04:11:37;102847.06;;;7.92;100.00
59170;BME280;52474;52.236;5.114;2023-04-19T04:14:03;102841.44;;;7.80;100.00
59170;BME280;52474;52.236;5.114;2023-04-19T04:16:31;102824.94;;;7.54;100.00
59170;BME280;52474;52.236;5.114;2023-04-19T04:18:58;102841.13;;;7.67;100.00
59170;BME280;52474;52.236;5.114;2023-04-19T04:21:26;102802.75;;;7.38;100.00
59170;BME280;52474;52.236;5.114;2023-04-19T04:23:54;102840.91;;;7.51;100.00
59170;BME280;52474;52.236;5.114;2023-04-19T04:26:28;102838.50;;;7.45;100.00
59170;BME280;52474;52.236;5.114;2023-04-19T04:29:15;102836.16;;;7.37;100.00
59170;BME280;52474;52.236;5.114;2023-04-19T04:31:42;102845.19;;;7.31;100.00
59170;BME280;52474;52.236;5.114;2023-04-19T04:34:08;102841.78;;;7.28;100.00
59170;BME280;52474;52.236;5.114;2023-04-19T04:36:37;102843.53;;;7.29;100.00
59170;BME280;52474;52.236;5.114;2023-04-19T04:39:05;102809.97;;;7.10;100.00
59170;BME280;52474;52.236;5.114;2023-04-19T04:41:31;102841.91;;;7.25;100.00
59170;BME280;52474;52.236;5.114;2023-04-19T04:43:58;102832.53;;;7.18;100.00
59170;BME280;52474;52.236;5.114;2023-04-19T04:46:26;102826.84;;;7.06;100.00
59170;BME280;52474;52.236;5.114;2023-04-19T04:48:52;102820.81;;;7.03;100.00
59170;BME280;52474;52.236;5.114;2023-04-19T04:51:19;102844.69;;;7.22;100.00
59170;BME280;52474;52.236;5.114;2023-04-19T04:53:48;102839.63;;;7.16;100.00
59170;BME280;52474;52.236;5.114;2023-04-19T04:56:14;102785.75;;;6.79;100.00
59170;BME280;52474;52.236;5.114;2023-04-19T04:58:40;102841.69;;;7.09;100.00
59170;BME280;52474;52.236;5.114;2023-04-19T05:01:08;102827.41;;;7.15;100.00
59170;BME280;52474;52.236;5.114;2023-04-19T05:03:38;102833.50;;;7.15;100.00
59170;BME280;52474;52.236;5.114;2023-04-19T05:06:07;102834.53;;;7.11;100.00
59170;BME280;52474;52.236;5.114;2023-04-19T05:08:34;102833.78;;;7.09;100.00
59170;BME280;52474;52.236;5.114;2023-04-19T05:11:13;102820.88;;;7.01;100.00
59170;BME280;52474;52.236;5.114;2023-04-19T05:13:40;102841.47;;;7.14;100.00
59170;BME280;52474;52.236;5.114;2023-04-19T05:16:06;102834.50;;;7.13;100.00
59170;BME280;52474;52.236;5.114;2023-04-19T05:18:32;102834.31;;;7.17;100.00
59170;BME280;52474;52.236;5.114;2023-04-19T05:20:58;102824.13;;;7.08;100.00
59170;BME280;52474;52.236;5.114;2023-04-19T05:23:29;102837.75;;;7.19;100.00
59170;BME280;52474;52.236;5.114;2023-04-19T05:25:56;102836.81;;;7.20;100.00
59170;BME280;52474;52.236;5.114;2023-04-19T05:28:24;102837.69;;;7.21;100.00
59170;BME280;52474;52.236;5.114;2023-04-19T05:31:07;102811.72;;;7.12;100.00
59170;BME280;52474;52.236;5.114;2023-04-19T05:33:39;102839.34;;;7.23;100.00
59170;BME280;52474;52.236;5.114;2023-04-19T05:36:05;102835.03;;;7.21;100.00
59170;BME280;52474;52.236;5.114;2023-04-19T05:38:31;102841.91;;;7.25;100.00
59170;BME280;52474;52.236;5.114;2023-04-19T05:41:04;102833.88;;;7.28;100.00
59170;BME280;52474;52.236;5.114;2023-04-19T05:43:30;102834.63;;;7.31;100.00
59170;BME280;52474;52.236;5.114;2023-04-19T05:45:56;102832.59;;;7.38;100.00
59170;BME280;52474;52.236;5.114;2023-04-19T05:48:22;102826.56;;;7.36;100.00
59170;BME280;52474;52.236;5.114;2023-04-19T05:51:05;102839.72;;;7.36;100.00
59170;BME280;52474;52.236;5.114;2023-04-19T05:54:03;102832.59;;;7.38;100.00
59170;BME280;52474;52.236;5.114;2023-04-19T05:56:29;102832.41;;;7.43;100.00
59170;BME280;52474;52.236;5.114;2023-04-19T05:58:55;102814.47;;;7.30;100.00
59170;BME280;52474;52.236;5.114;2023-04-19T06:01:22;102819.81;;;7.51;100.00
59170;BME280;52474;52.236;5.114;2023-04-19T06:03:47;102824.00;;;7.55;100.00
59170;BME280;52474;52.236;5.114;2023-04-19T06:06:22;102830.03;;;7.59;100.00
59170;BME280;52474;52.236;5.114;2023-04-19T06:08:48;102827.31;;;7.60;100.00
59170;BME280;52474;52.236;5.114;2023-04-19T06:11:14;102823.19;;;7.53;100.00
59170;BME280;52474;52.236;5.114;2023-04-19T06:13:40;102840.00;;;7.72;100.00
59170;BME280;52474;52.236;5.114;2023-04-19T06:16:06;102841.59;;;7.77;100.00
59170;BME280;52474;52.236;5.114;2023-04-19T06:18:32;102837.84;;;7.82;100.00
59170;BME280;52474;52.236;5.114;2023-04-19T06:20:58;102837.59;;;7.88;100.00
59170;BME280;52474;52.236;5.114;2023-04-19T06:23:24;102839.16;;;7.92;100.00
59170;BME280;52474;52.236;5.114;2023-04-19T06:25:51;102846.81;;;7.99;100.00
59170;BME280;52474;52.236;5.114;2023-04-19T06:28:17;102834.75;;;7.93;100.00
59170;BME280;52474;52.236;5.114;2023-04-19T06:30:43;102846.69;;;8.02;100.00
59170;BME280;52474;52.236;5.114;2023-04-19T06:33:09;102843.59;;;8.12;100.00
59170;BME280;52474;52.236;5.114;2023-04-19T06:35:35;102811.47;;;8.03;100.00
59170;BME280;52474;52.236;5.114;2023-04-19T06:38:02;102844.31;;;8.16;100.00
59170;BME280;52474;52.236;5.114;2023-04-19T06:40:27;102848.88;;;8.12;100.00
59170;BME280;52474;52.236;5.114;2023-04-19T06:42:54;102843.31;;;8.18;100.00
59170;BME280;52474;52.236;5.114;2023-04-19T06:45:20;102818.25;;;8.08;100.00
59170;BME280;52474;52.236;5.114;2023-04-19T06:47:46;102816.34;;;8.12;100.00
59170;BME280;52474;52.236;5.114;2023-04-19T06:50:12;102844.38;;;8.35;100.00
59170;BME280;52474;52.236;5.114;2023-04-19T06:52:38;102810.16;;;8.13;100.00
59170;BME280;52474;52.236;5.114;2023-04-19T06:55:05;102832.84;;;8.37;100.00
59170;BME280;52474;52.236;5.114;2023-04-19T06:57:31;102834.38;;;8.43;100.00
59170;BME280;52474;52.236;5.114;2023-04-19T06:59:58;102842.28;;;8.43;100.00
59170;BME280;52474;52.236;5.114;2023-04-19T07:02:24;102842.78;;;8.51;100.00
59170;BME280;52474;52.236;5.114;2023-04-19T07:04:50;102850.31;;;8.60;100.00
59170;BME280;52474;52.236;5.114;2023-04-19T07:07:16;102846.41;;;8.69;100.00
59170;BME280;52474;52.236;5.114;2023-04-19T07:09:42;102818.34;;;8.67;100.00
59170;BME280;52474;52.236;5.114;2023-04-19T07:12:07;102813.50;;;8.76;100.00
59170;BME280;52474;52.236;5.114;2023-04-19T07:14:33;102792.38;;;8.76;100.00
59170;BME280;52474;52.236;5.114;2023-04-19T07:16:59;102844.69;;;9.25;100.00
59170;BME280;52474;52.236;5.114;2023-04-19T07:19:25;102788.06;;;9.12;100.00
59170;BME280;52474;52.236;5.114;2023-04-19T07:21:52;102846.09;;;10.03;100.00
59170;BME280;52474;52.236;5.114;2023-04-19T07:24:18;102828.69;;;14.40;100.00
59170;BME280;52474;52.236;5.114;2023-04-19T07:26:44;102832.69;;;17.81;100.00
59170;BME280;52474;52.236;5.114;2023-04-19T07:29:10;102822.13;;;17.69;100.00
59170;BME280;52474;52.236;5.114;2023-04-19T07:31:36;102834.41;;;18.65;98.70
59170;BME280;52474;52.236;5.114;2023-04-19T07:34:01;102839.06;;;20.30;92.15
59170;BME280;52474;52.236;5.114;2023-04-19T07:36:27;102818.25;;;21.15;80.25
59170;BME280;52474;52.236;5.114;2023-04-19T07:38:53;102839.00;;;20.02;72.57
59170;BME280;52474;52.236;5.114;2023-04-19T07:41:19;102811.16;;;20.31;71.95
59170;BME280;52474;52.236;5.114;2023-04-19T07:43:45;102823.16;;;22.43;68.88
59170;BME280;52474;52.236;5.114;2023-04-19T07:46:12;102835.41;;;21.85;63.69
59170;BME280;52474;52.236;5.114;2023-04-19T07:48:38;102827.06;;;22.91;61.20
59170;BME280;52474;52.236;5.114;2023-04-19T07:51:12;102832.84;;;23.05;54.82
59170;BME280;52474;52.236;5.114;2023-04-19T07:53:39;102807.63;;;22.88;53.99
59170;BME280;52474;52.236;5.114;2023-04-19T07:56:10;102820.41;;;22.09;60.21
59170;BME280;52474;52.236;5.114;2023-04-19T07:58:36;102836.63;;;22.69;55.93
59170;BME280;52474;52.236;5.114;2023-04-19T08:01:03;102833.41;;;24.71;52.63
59170;BME280;52474;52.236;5.114;2023-04-19T08:03:30;102833.47;;;23.74;47.82
59170;BME280;52474;52.236;5.114;2023-04-19T08:05:59;102827.53;;;26.05;46.58
59170;BME280;52474;52.236;5.114;2023-04-19T08:08:26;102832.78;;;25.84;40.46
59170;BME280;52474;52.236;5.114;2023-04-19T08:10:52;102834.25;;;27.20;40.92
59170;BME280;52474;52.236;5.114;2023-04-19T08:13:19;102847.69;;;23.01;47.19
59170;BME280;52474;52.236;5.114;2023-04-19T08:15:46;102818.97;;;25.56;40.49
59170;BME280;52474;52.236;5.114;2023-04-19T08:18:11;102809.50;;;25.52;38.74
59170;BME280;52474;52.236;5.114;2023-04-19T08:20:37;102835.97;;;24.95;38.65
59170;BME280;52474;52.236;5.114;2023-04-19T08:23:03;102837.41;;;24.83;39.68
59170;BME280;52474;52.236;5.114;2023-04-19T08:25:30;102833.75;;;25.53;37.46
59170;BME280;52474;52.236;5.114;2023-04-19T08:27:57;102833.44;;;25.71;35.63
59170;BME280;52474;52.236;5.114;2023-04-19T08:30:23;102828.56;;;25.81;37.93
59170;BME280;52474;52.236;5.114;2023-04-19T08:32:49;102827.06;;;24.39;36.48
59170;BME280;52474;52.236;5.114;2023-04-19T08:35:15;102831.53;;;25.34;36.56
59170;BME280;52474;52.236;5.114;2023-04-19T08:37:41;102814.59;;;27.96;34.38
59170;BME280;52474;52.236;5.114;2023-04-19T08:40:08;102819.81;;;29.35;30.47
59170;BME280;52474;52.236;5.114;2023-04-19T08:42:35;102827.78;;;27.21;30.69
59170;BME280;52474;52.236;5.114;2023-04-19T08:45:02;102831.59;;;27.98;28.95
59170;BME280;52474;52.236;5.114;2023-04-19T08:47:32;102821.25;;;26.05;29.64
59170;BME280;52474;52.236;5.114;2023-04-19T08:50:05;102819.63;;;27.21;27.88
59170;BME280;52474;52.236;5.114;2023-04-19T08:52:36;102823.44;;;26.54;28.81
59170;BME280;52474;52.236;5.114;2023-04-19T08:55:06;102821.47;;;25.80;29.98
59170;BME280;52474;52.236;5.114;2023-04-19T08:57:33;102818.63;;;27.50;29.96
59170;BME280;52474;52.236;5.114;2023-04-19T09:00:01;102815.78;;;28.15;28.36
59170;BME280;52474;52.236;5.114;2023-04-19T09:02:48;102803.47;;;27.41;27.30
59170;BME280;52474;52.236;5.114;2023-04-19T09:05:15;102818.97;;;27.19;27.99
59170;BME280;52474;52.236;5.114;2023-04-19T09:07:43;102822.88;;;25.07;29.23
59170;BME280;52474;52.236;5.114;2023-04-19T09:10:11;102818.72;;;27.35;28.90
59170;BME280;52474;52.236;5.114;2023-04-19T09:12:37;102810.81;;;28.25;28.55
59170;BME280;52474;52.236;5.114;2023-04-19T09:15:05;102810.94;;;26.30;28.01
59170;BME280;52474;52.236;5.114;2023-04-19T09:17:35;102802.94;;;27.80;28.03
59170;BME280;52474;52.236;5.114;2023-04-19T09:20:01;102812.28;;;26.34;29.23
59170;BME280;52474;52.236;5.114;2023-04-19T09:22:29;102809.56;;;27.93;27.36
59170;BME280;52474;52.236;5.114;2023-04-19T09:24:55;102808.78;;;27.99;24.59
59170;BME280;52474;52.236;5.114;2023-04-19T09:27:29;102805.50;;;25.47;29.39
59170;BME280;52474;52.236;5.114;2023-04-19T09:29:58;102807.59;;;27.58;26.49
59170;BME280;52474;52.236;5.114;2023-04-19T09:32:25;102806.53;;;27.31;26.64
59170;BME280;52474;52.236;5.114;2023-04-19T09:34:52;102801.75;;;26.75;27.64
59170;BME280;52474;52.236;5.114;2023-04-19T09:37:19;102805.13;;;27.85;26.85
59170;BME280;52474;52.236;5.114;2023-04-19T09:39:46;102800.50;;;28.20;26.61
59170;BME280;52474;52.236;5.114;2023-04-19T09:42:11;102769.06;;;28.53;25.78
59170;BME280;52474;52.236;5.114;2023-04-19T09:44:37;102795.66;;;26.95;27.18
59170;BME280;52474;52.236;5.114;2023-04-19T09:47:29;102795.44;;;26.24;27.49
59170;BME280;52474;52.236;5.114;2023-04-19T09:50:06;102811.41;;;26.33;29.23
59170;BME280;52474;52.236;5.114;2023-04-19T09:52:32;102800.66;;;25.58;28.99
59170;BME280;52474;52.236;5.114;2023-04-19T09:55:00;102789.88;;;26.02;29.58
59170;BME280;52474;52.236;5.114;2023-04-19T09:57:27;102793.69;;;27.96;27.11
59170;BME280;52474;52.236;5.114;2023-04-19T09:59:53;102800.69;;;26.76;27.72
59170;BME280;52474;52.236;5.114;2023-04-19T10:02:19;102802.09;;;25.83;30.83
59170;BME280;52474;52.236;5.114;2023-04-19T10:04:46;102801.88;;;26.23;30.32
59170;BME280;52474;52.236;5.114;2023-04-19T10:07:12;102789.53;;;28.07;27.64
59170;BME280;52474;52.236;5.114;2023-04-19T10:09:38;102790.19;;;25.32;31.12
59170;BME280;52474;52.236;5.114;2023-04-19T10:12:04;102779.66;;;27.22;28.34
59170;BME280;52474;52.236;5.114;2023-04-19T10:14:33;102794.84;;;25.99;29.19
59170;BME280;52474;52.236;5.114;2023-04-19T10:17:01;102795.03;;;25.59;30.17
59170;BME280;52474;52.236;5.114;2023-04-19T10:19:27;102776.38;;;24.16;31.80
59170;BME280;52474;52.236;5.114;2023-04-19T10:21:54;102740.81;;;23.80;32.35
59170;BME280;52474;52.236;5.114;2023-04-19T10:24:21;102773.63;;;24.95;31.02
59170;BME280;52474;52.236;5.114;2023-04-19T10:27:08;102784.44;;;25.49;28.91
59170;BME280;52474;52.236;5.114;2023-04-19T10:32:20;102770.47;;;26.50;29.18
59170;BME280;52474;52.236;5.114;2023-04-19T10:34:46;102765.31;;;26.40;28.22
59170;BME280;52474;52.236;5.114;2023-04-19T10:37:15;102769.88;;;25.65;29.32
59170;BME280;52474;52.236;5.114;2023-04-19T10:39:43;102778.97;;;25.73;29.58
59170;BME280;52474;52.236;5.114;2023-04-19T10:42:09;102750.38;;;22.07;33.19
59170;BME280;52474;52.236;5.114;2023-04-19T10:44:35;102736.88;;;23.91;32.40
59170;BME280;52474;52.236;5.114;2023-04-19T10:47:01;102756.41;;;26.61;28.56
59170;BME280;52474;52.236;5.114;2023-04-19T10:49:29;102755.59;;;25.86;27.99
59170;BME280;52474;52.236;5.114;2023-04-19T10:51:56;102750.50;;;25.07;28.59
59170;BME280;52474;52.236;5.114;2023-04-19T10:54:32;102758.78;;;24.91;30.37
59170;BME280;52474;52.236;5.114;2023-04-19T10:57:02;102749.75;;;23.48;31.81
59170;BME280;52474;52.236;5.114;2023-04-19T10:59:33;102759.53;;;22.91;32.69
59170;BME280;52474;52.236;5.114;2023-04-19T11:02:02;102745.50;;;23.70;31.20
59170;BME280;52474;52.236;5.114;2023-04-19T11:09:32;102733.34;;;24.30;31.52
59170;BME280;52474;52.236;5.114;2023-04-19T11:12:06;102742.69;;;25.36;30.05
59170;BME280;52474;52.236;5.114;2023-04-19T11:14:38;102736.31;;;24.43;31.01
59170;BME280;52474;52.236;5.114;2023-04-19T11:17:24;102721.31;;;25.18;29.38
59170;BME280;52474;52.236;5.114;2023-04-19T11:20:06;102728.84;;;24.84;29.17
59170;BME280;52474;52.236;5.114;2023-04-19T11:25:16;102729.44;;;23.93;29.76
59170;BME280;52474;52.236;5.114;2023-04-19T11:27:45;102711.22;;;24.57;28.58
59170;BME280;52474;52.236;5.114;2023-04-19T11:30:14;102704.56;;;24.37;28.86
59170;BME280;52474;52.236;5.114;2023-04-19T11:32:54;102659.78;;;24.95;28.88
59170;BME280;52474;52.236;5.114;2023-04-19T11:35:25;102695.53;;;25.37;29.62
59170;BME280;52474;52.236;5.114;2023-04-19T11:37:52;102698.78;;;26.51;27.31
59170;BME280;52474;52.236;5.114;2023-04-19T11:40:19;102700.91;;;24.84;27.13
59170;BME280;52474;52.236;5.114;2023-04-19T11:42:45;102706.00;;;23.20;29.06
59170;BME280;52474;52.236;5.114;2023-04-19T11:45:23;102687.03;;;25.40;27.22
59170;BME280;52474;52.236;5.114;2023-04-19T11:47:50;102694.19;;;23.12;28.71
59170;BME280;52474;52.236;5.114;2023-04-19T11:55:37;102687.91;;;23.53;27.08
59170;BME280;52474;52.236;5.114;2023-04-19T11:58:06;102676.03;;;24.18;27.67
59170;BME280;52474;52.236;5.114;2023-04-19T12:00:34;102672.91;;;23.34;29.59
59170;BME280;52474;52.236;5.114;2023-04-19T12:03:00;102668.91;;;23.86;26.61
59170;BME280;52474;52.236;5.114;2023-04-19T12:05:26;102654.13;;;22.08;30.16
59170;BME280;52474;52.236;5.114;2023-04-19T12:08:05;102649.97;;;21.09;30.94
59170;BME280;52474;52.236;5.114;2023-04-19T12:10:33;102643.00;;;23.11;28.50
59170;BME280;52474;52.236;5.114;2023-04-19T12:13:00;102670.84;;;24.39;26.98
59170;BME280;52474;52.236;5.114;2023-04-19T12:15:42;102680.84;;;23.11;28.88
59170;BME280;52474;52.236;5.114;2023-04-19T12:18:08;102669.31;;;23.50;27.80
59170;BME280;52474;52.236;5.114;2023-04-19T12:20:36;102667.16;;;21.78;29.93
59170;BME280;52474;52.236;5.114;2023-04-19T12:23:02;102680.31;;;20.02;32.38
59170;BME280;52474;52.236;5.114;2023-04-19T12:25:29;102662.88;;;20.34;33.74
59170;BME280;52474;52.236;5.114;2023-04-19T12:27:56;102654.94;;;20.78;31.52
59170;BME280;52474;52.236;5.114;2023-04-19T12:30:23;102676.84;;;20.37;34.97
59170;BME280;52474;52.236;5.114;2023-04-19T12:32:48;102636.06;;;20.14;32.97
59170;BME280;52474;52.236;5.114;2023-04-19T12:35:16;102636.63;;;19.90;33.29
59170;BME280;52474;52.236;5.114;2023-04-19T12:37:42;102666.56;;;19.68;34.27
59170;BME280;52474;52.236;5.114;2023-04-19T12:40:08;102653.59;;;20.82;32.53
59170;BME280;52474;52.236;5.114;2023-04-19T12:42:34;102666.81;;;19.18;35.77
59170;BME280;52474;52.236;5.114;2023-04-19T12:45:00;102679.25;;;18.99;37.11
59170;BME280;52474;52.236;5.114;2023-04-19T12:47:26;102652.56;;;18.98;39.77
59170;BME280;52474;52.236;5.114;2023-04-19T12:49:51;102662.44;;;19.73;35.44
59170;BME280;52474;52.236;5.114;2023-04-19T12:52:18;102652.31;;;19.48;35.23
59170;BME280;52474;52.236;5.114;2023-04-19T12:54:44;102654.75;;;19.88;36.43
59170;BME280;52474;52.236;5.114;2023-04-19T12:57:09;102653.09;;;19.11;41.78
59170;BME280;52474;52.236;5.114;2023-04-19T12:59:35;102650.09;;;18.46;42.58
59170;BME280;52474;52.236;5.114;2023-04-19T13:02:01;102624.50;;;18.32;43.92
59170;BME280;52474;52.236;5.114;2023-04-19T13:04:27;102642.38;;;19.01;42.88
59170;BME280;52474;52.236;5.114;2023-04-19T13:06:53;102628.09;;;18.91;43.34
59170;BME280;52474;52.236;5.114;2023-04-19T13:09:18;102632.63;;;18.11;44.86